Time;durP1;ratioP1;P1;durP2;ratioP2;P2;SDS_P1;SDS_P2;PMS_P1;PMS_P2;Temp;Humidity;BMP_temperature;BMP_pressure;BME280_temperature;BME280_humidity;BME280_pressure;Samples;Min_cycle;Max_cycle;Signal;HPM_P1;HPM_P2
2021/07/23 00:02:22;;;;;;;17.00;15.07;;;19.30;99.90;;;;;;5072086;28;20207;-49
2021/07/23 00:04:50;;;;;;;18.73;15.23;;;19.30;99.90;;;;;;5072029;28;20207;-50
2021/07/23 00:07:18;;;;;;;17.48;15.77;;;19.30;99.90;;;;;;5071937;28;20203;-50
2021/07/23 00:09:46;;;;;;;18.45;15.45;;;19.30;99.90;;;;;;5071889;28;20204;-53
2021/07/23 00:12:14;;;;;;;22.70;17.65;;;19.30;99.90;;;;;;5072037;28;20306;-51
2021/07/23 00:14:44;;;;;;;18.90;17.02;;;19.30;99.90;;;;;;5071621;28;20569;-49
2021/07/23 00:17:11;;;;;;;19.20;17.13;;;19.20;99.90;;;;;;5071785;28;20670;-51
2021/07/23 00:19:40;;;;;;;20.17;16.48;;;19.20;99.90;;;;;;5071630;28;20242;-51
2021/07/23 00:22:08;;;;;;;18.92;16.67;;;19.20;99.90;;;;;;5071816;28;20209;-53
2021/07/23 00:24:36;;;;;;;20.58;16.50;;;19.10;99.90;;;;;;5071920;28;20210;-50
2021/07/23 00:27:04;;;;;;;19.58;17.05;;;19.10;99.90;;;;;;5071964;28;20295;-47
2021/07/23 00:29:32;;;;;;;19.08;16.85;;;19.10;99.90;;;;;;5071879;28;20298;-51
2021/07/23 00:32:01;;;;;;;18.58;16.65;;;19.10;99.90;;;;;;5071805;28;20211;-51
2021/07/23 00:34:29;;;;;;;19.80;17.63;;;19.00;99.90;;;;;;5071638;28;20223;-48
2021/07/23 00:36:57;;;;;;;19.90;17.90;;;19.00;99.90;;;;;;5071280;28;20290;-49
2021/07/23 00:39:25;;;;;;;19.15;17.20;;;18.90;99.90;;;;;;5071837;28;20310;-52
2021/07/23 00:41:53;;;;;;;21.58;17.85;;;18.80;99.90;;;;;;5071712;28;20302;-54
2021/07/23 00:44:21;;;;;;;19.77;17.67;;;18.80;99.90;;;;;;5071603;28;20294;-50
2021/07/23 00:46:49;;;;;;;20.63;18.42;;;18.80;99.90;;;;;;5071477;28;20214;-49
2021/07/23 00:49:19;;;;;;;20.75;17.77;;;18.80;99.90;;;;;;5071714;28;20207;-51
2021/07/23 00:51:47;;;;;;;20.90;18.70;;;18.80;99.90;;;;;;5071459;28;20208;-51
2021/07/23 00:54:15;;;;;;;21.02;18.08;;;18.70;99.90;;;;;;5071496;28;20230;-49
2021/07/23 00:56:44;;;;;;;18.65;16.85;;;18.70;99.90;;;;;;5071592;28;20307;-49
2021/07/23 00:59:12;;;;;;;20.58;18.30;;;18.70;99.90;;;;;;5071493;28;20248;-51
2021/07/23 01:01:41;;;;;;;19.67;17.67;;;18.70;99.90;;;;;;5071343;28;20211;-49
2021/07/23 01:04:10;;;;;;;21.50;19.15;;;18.60;99.90;;;;;;5071587;28;20218;-53
2021/07/23 01:06:39;;;;;;;21.05;18.95;;;18.60;99.90;;;;;;5071239;28;20302;-51
2021/07/23 01:09:07;;;;;;;19.85;17.88;;;18.60;99.90;;;;;;5071382;28;20294;-54
2021/07/23 01:11:37;;;;;;;18.98;16.55;;;18.60;99.90;;;;;;5071295;28;20235;-49
2021/07/23 01:14:06;;;;;;;20.63;18.42;;;18.60;99.90;;;;;;5071228;28;20648;-50
2021/07/23 01:16:34;;;;;;;22.13;17.83;;;18.60;99.90;;;;;;5071405;28;20628;-48
2021/07/23 01:19:07;;;;;;;20.00;18.00;;;18.60;99.90;;;;;;5071112;28;20243;-50
2021/07/23 01:21:36;;;;;;;19.25;17.25;;;18.60;99.90;;;;;;5071377;28;20207;-49
2021/07/23 01:24:05;;;;;;;19.95;17.83;;;18.50;99.90;;;;;;5071247;28;20574;-48
2021/07/23 01:26:34;;;;;;;19.13;17.23;;;18.50;99.90;;;;;;5073257;28;20207;-53
2021/07/23 01:29:03;;;;;;;19.65;17.67;;;18.50;99.90;;;;;;5075058;28;20215;-51
2021/07/23 01:31:31;;;;;;;19.48;17.52;;;18.40;99.90;;;;;;5074977;28;20207;-47
2021/07/23 01:33:59;;;;;;;21.33;17.73;;;18.40;99.90;;;;;;5074961;28;20211;-48
2021/07/23 01:36:27;;;;;;;20.08;18.13;;;18.30;99.90;;;;;;5074701;28;20255;-49
2021/07/23 01:38:57;;;;;;;20.33;16.92;;;18.20;99.90;;;;;;5074629;28;20214;-50
2021/07/23 01:41:27;;;;;;;21.80;18.30;;;18.20;99.90;;;;;;5074787;28;20290;-50
2021/07/23 01:43:58;;;;;;;19.88;16.92;;;18.20;99.90;;;;;;5074951;28;20253;-51
2021/07/23 01:46:26;;;;;;;20.17;17.02;;;18.20;99.90;;;;;;5074660;28;20225;-51
2021/07/23 01:48:54;;;;;;;18.83;16.95;;;18.10;99.90;;;;;;5074514;28;20211;-51
2021/07/23 01:51:23;;;;;;;18.98;16.92;;;18.10;99.90;;;;;;5074389;28;20211;-49
2021/07/23 01:53:51;;;;;;;18.50;16.23;;;18.10;99.90;;;;;;5074341;28;20737;-51
2021/07/23 01:56:19;;;;;;;19.30;17.35;;;18.20;99.90;;;;;;5074223;28;20233;-50
2021/07/23 01:58:48;;;;;;;19.95;17.52;;;18.10;99.90;;;;;;5074311;28;20301;-49
2021/07/23 02:01:16;;;;;;;20.38;17.92;;;18.10;99.90;;;;;;5074372;28;20322;-49
2021/07/23 02:03:44;;;;;;;18.40;16.58;;;18.20;99.90;;;;;;5074238;28;20208;-52
2021/07/23 02:06:12;;;;;;;18.92;16.92;;;18.10;99.90;;;;;;5074059;28;20584;-51
2021/07/23 02:08:40;;;;;;;17.92;16.15;;;18.10;99.90;;;;;;5073723;28;20210;-49
2021/07/23 02:11:08;;;;;;;18.52;16.33;;;18.10;99.90;;;;;;5073838;28;20303;-51
2021/07/23 02:13:36;;;;;;;19.70;17.67;;;18.20;99.90;;;;;;5074098;28;20203;-49
2021/07/23 02:16:06;;;;;;;18.35;16.42;;;18.20;99.90;;;;;;5073858;28;20582;-52
2021/07/23 02:18:34;;;;;;;20.00;16.33;;;18.20;99.90;;;;;;5073731;28;20235;-54
2021/07/23 02:21:06;;;;;;;18.88;16.95;;;18.20;99.90;;;;;;5074085;28;20246;-53
2021/07/23 02:23:35;;;;;;;18.35;16.45;;;18.10;99.90;;;;;;5073932;28;20301;-50
2021/07/23 02:26:03;;;;;;;18.60;16.70;;;18.10;99.90;;;;;;5073840;28;20286;-52
2021/07/23 02:28:31;;;;;;;22.33;17.35;;;18.10;99.90;;;;;;5073763;28;20333;-49
2021/07/23 02:30:58;;;;;;;18.85;16.63;;;18.10;99.90;;;;;;5073615;28;20211;-49
2021/07/23 02:33:28;;;;;;;19.42;17.38;;;18.00;99.90;;;;;;5073799;28;20614;-52
2021/07/23 02:35:55;;;;;;;19.58;17.52;;;18.00;99.90;;;;;;5073499;28;20268;-49
2021/07/23 02:38:23;;;;;;;19.40;17.17;;;18.00;99.90;;;;;;5073765;28;20211;-50
2021/07/23 02:40:54;;;;;;;18.17;16.27;;;18.00;99.90;;;;;;5073581;28;20302;-54
2021/07/23 02:43:22;;;;;;;19.52;15.55;;;18.00;99.90;;;;;;5073314;28;20215;-50
2021/07/23 02:45:50;;;;;;;17.33;15.52;;;18.00;99.90;;;;;;5073318;28;20548;-49
2021/07/23 02:48:18;;;;;;;18.65;16.52;;;18.00;99.90;;;;;;5073336;28;20323;-48
2021/07/23 02:50:47;;;;;;;16.85;15.02;;;18.00;99.90;;;;;;5073352;28;20207;-54
2021/07/23 02:53:17;;;;;;;18.40;16.35;;;18.00;99.90;;;;;;5073330;28;20207;-52
2021/07/23 02:55:45;;;;;;;19.73;17.70;;;18.00;99.90;;;;;;5073288;28;20316;-47
2021/07/23 02:58:13;;;;;;;16.65;15.05;;;18.00;99.90;;;;;;5073148;28;20343;-51
2021/07/23 03:00:41;;;;;;;18.00;16.25;;;18.00;99.90;;;;;;5073360;28;20306;-50
2021/07/23 03:03:09;;;;;;;17.35;15.55;;;18.00;99.90;;;;;;5073138;28;20682;-50
2021/07/23 03:05:37;;;;;;;17.27;15.45;;;18.00;99.90;;;;;;5073235;28;20203;-52
2021/07/23 03:08:08;;;;;;;17.42;15.73;;;18.00;99.90;;;;;;5073149;28;20242;-51
2021/07/23 03:10:36;;;;;;;20.67;16.90;;;17.90;99.90;;;;;;5072928;28;20542;-49
2021/07/23 03:13:04;;;;;;;17.38;15.57;;;17.90;99.90;;;;;;5073186;28;20242;-52
2021/07/23 03:15:32;;;;;;;18.17;15.35;;;17.90;99.90;;;;;;5072996;28;20211;-47
2021/07/23 03:18:00;;;;;;;17.73;15.85;;;17.80;99.90;;;;;;5072643;28;20334;-49
2021/07/23 03:20:28;;;;;;;18.20;15.82;;;17.80;99.90;;;;;;5072896;28;20290;-49
2021/07/23 03:22:56;;;;;;;18.52;14.77;;;17.70;99.90;;;;;;5072671;28;20235;-48
2021/07/23 03:25:25;;;;;;;17.67;16.02;;;17.70;99.90;;;;;;5072752;28;20578;-49
2021/07/23 03:27:53;;;;;;;22.52;16.83;;;17.60;99.90;;;;;;5072646;28;20578;-49
2021/07/23 03:30:21;;;;;;;18.58;16.67;;;17.60;99.90;;;;;;5072684;28;20618;-49
2021/07/23 03:32:49;;;;;;;17.65;15.75;;;17.70;99.90;;;;;;5072716;28;20306;-49
2021/07/23 03:35:17;;;;;;;17.83;16.10;;;17.60;99.90;;;;;;5072479;28;20298;-52
2021/07/23 03:37:45;;;;;;;25.88;23.23;;;17.60;99.90;;;;;;5072275;28;20322;-49
2021/07/23 03:40:13;;;;;;;22.23;19.95;;;17.60;99.90;;;;;;5072345;28;20215;-45
2021/07/23 03:42:42;;;;;;;18.55;16.65;;;17.50;99.90;;;;;;5072365;28;20750;-44
2021/07/23 03:45:10;;;;;;;17.42;15.60;;;17.60;99.90;;;;;;5072362;28;20211;-48
2021/07/23 03:47:39;;;;;;;18.48;15.30;;;17.50;99.90;;;;;;5072301;28;20229;-47
2021/07/23 03:50:09;;;;;;;16.73;15.02;;;17.50;99.90;;;;;;5071805;28;20348;-49
2021/07/23 03:52:37;;;;;;;18.40;16.30;;;17.50;99.90;;;;;;5072257;28;20294;-48
2021/07/23 03:55:05;;;;;;;20.88;16.58;;;17.60;99.90;;;;;;5072328;28;20218;-48
2021/07/23 03:57:33;;;;;;;17.30;15.38;;;17.60;99.90;;;;;;5072257;28;20234;-47
2021/07/23 04:00:03;;;;;;;18.95;16.90;;;17.60;99.90;;;;;;5072296;28;20213;-47
2021/07/23 04:02:31;;;;;;;18.50;16.60;;;17.60;99.90;;;;;;5071871;28;20306;-47
2021/07/23 04:04:59;;;;;;;17.88;15.98;;;17.60;99.90;;;;;;5071892;28;20302;-49
2021/07/23 04:07:29;;;;;;;18.85;16.85;;;17.60;99.90;;;;;;5071927;28;20203;-48
2021/07/23 04:09:57;;;;;;;20.17;18.10;;;17.60;99.90;;;;;;5071995;28;20207;-51
2021/07/23 04:12:25;;;;;;;21.20;17.85;;;17.60;99.90;;;;;;5072119;28;20215;-46
2021/07/23 04:14:53;;;;;;;23.23;17.80;;;17.60;99.90;;;;;;5071973;28;20276;-46
2021/07/23 04:17:22;;;;;;;20.92;17.95;;;17.50;99.90;;;;;;5072365;28;20356;-48
2021/07/23 04:19:50;;;;;;;19.83;17.83;;;17.50;99.90;;;;;;5072231;28;20207;-49
2021/07/23 04:22:18;;;;;;;18.60;16.75;;;17.50;99.90;;;;;;5072109;28;20211;-51
2021/07/23 04:24:46;;;;;;;20.40;16.95;;;17.50;99.90;;;;;;5071879;28;20214;-49
2021/07/23 04:27:14;;;;;;;20.15;18.15;;;17.50;99.90;;;;;;5071556;28;20213;-47
2021/07/23 04:29:47;;;;;;;19.30;17.23;;;17.50;99.90;;;;;;5071761;28;20227;-51
2021/07/23 04:32:15;;;;;;;18.80;16.95;;;17.50;99.90;;;;;;5072153;28;20207;-50
2021/07/23 04:34:45;;;;;;;22.10;17.92;;;17.50;99.90;;;;;;5072074;28;20231;-54
2021/07/23 04:37:12;;;;;;;19.50;17.00;;;17.40;99.90;;;;;;5071691;28;20719;-50
2021/07/23 04:39:41;;;;;;;19.50;17.60;;;17.40;99.90;;;;;;5071689;28;20217;-50
2021/07/23 04:42:09;;;;;;;18.40;16.60;;;17.40;99.90;;;;;;5071709;28;20211;-50
2021/07/23 04:44:37;;;;;;;21.45;17.88;;;17.50;99.90;;;;;;5071745;28;20246;-49
2021/07/23 04:47:05;;;;;;;17.55;15.60;;;17.50;99.90;;;;;;5071944;28;20295;-49
2021/07/23 04:49:33;;;;;;;19.40;17.38;;;17.60;99.90;;;;;;5071894;28;20306;-53
2021/07/23 04:52:03;;;;;;;21.65;16.98;;;17.60;99.90;;;;;;5071816;28;20298;-47
2021/07/23 04:54:30;;;;;;;17.50;15.57;;;17.60;99.90;;;;;;5071470;28;20302;-49
2021/07/23 04:56:58;;;;;;;23.58;18.42;;;17.70;99.90;;;;;;5071475;28;20316;-47
2021/07/23 04:59:26;;;;;;;18.75;16.63;;;17.70;99.90;;;;;;5071815;28;20231;-48
2021/07/23 05:01:54;;;;;;;19.25;17.02;;;17.80;99.90;;;;;;5074435;28;20218;-45
2021/07/23 05:04:22;;;;;;;18.65;16.65;;;17.80;99.90;;;;;;5075346;28;20692;-50
2021/07/23 05:06:50;;;;;;;17.70;15.75;;;17.90;99.90;;;;;;5075281;28;20702;-48
2021/07/23 05:09:19;;;;;;;19.02;17.15;;;18.00;99.90;;;;;;5075222;28;20211;-50
2021/07/23 05:11:48;;;;;;;20.73;15.90;;;18.10;99.90;;;;;;5075517;28;20242;-51
2021/07/23 05:14:17;;;;;;;18.42;16.52;;;18.10;99.90;;;;;;5075364;28;20215;-48
2021/07/23 05:16:46;;;;;;;17.20;15.48;;;18.20;99.90;;;;;;5075287;28;20235;-52
2021/07/23 05:19:15;;;;;;;18.38;16.40;;;18.30;99.90;;;;;;5074949;28;20269;-49
2021/07/23 05:21:45;;;;;;;17.98;16.17;;;18.40;99.90;;;;;;5075041;28;20678;-52
2021/07/23 05:24:14;;;;;;;16.75;15.15;;;18.50;99.90;;;;;;5075081;28;20239;-53
2021/07/23 05:26:43;;;;;;;17.52;15.65;;;18.50;99.90;;;;;;5075320;28;20223;-52
2021/07/23 05:29:11;;;;;;;20.05;16.65;;;18.60;99.90;;;;;;5075270;28;20222;-51
2021/07/23 05:31:39;;;;;;;20.08;16.98;;;18.60;99.90;;;;;;5074981;28;20267;-55
2021/07/23 05:34:07;;;;;;;19.65;15.75;;;18.70;99.90;;;;;;5074985;28;20269;-51
2021/07/23 05:36:36;;;;;;;19.73;15.10;;;18.80;99.90;;;;;;5074649;28;20239;-50
2021/07/23 05:39:04;;;;;;;17.30;15.60;;;18.90;99.90;;;;;;5074897;28;20690;-49
2021/07/23 05:41:32;;;;;;;19.23;16.85;;;19.00;99.90;;;;;;5074923;28;20298;-48
2021/07/23 05:44:01;;;;;;;22.25;15.45;;;19.00;99.90;;;;;;5074865;28;20536;-51
2021/07/23 05:46:29;;;;;;;21.02;16.63;;;19.10;99.90;;;;;;5074699;28;20669;-51
2021/07/23 05:48:57;;;;;;;16.63;14.95;;;19.10;99.90;;;;;;5074423;28;20211;-51
2021/07/23 05:51:25;;;;;;;17.92;16.02;;;19.20;99.90;;;;;;5074607;28;20306;-50
2021/07/23 05:53:52;;;;;;;20.55;16.35;;;19.20;99.90;;;;;;5074678;28;20207;-50
2021/07/23 05:56:20;;;;;;;20.38;15.98;;;19.20;99.90;;;;;;5074428;28;20690;-51
2021/07/23 05:58:49;;;;;;;19.10;17.08;;;19.20;99.90;;;;;;5074553;28;20254;-50
2021/07/23 06:01:18;;;;;;;19.35;16.08;;;19.20;99.90;;;;;;5074147;28;20240;-52
2021/07/23 06:03:46;;;;;;;19.48;17.13;;;19.20;99.90;;;;;;5074603;28;20191;-53
2021/07/23 06:06:15;;;;;;;17.88;15.95;;;19.20;99.90;;;;;;5074421;28;20573;-51
2021/07/23 06:09:02;;;;;;;22.95;16.92;;;19.30;99.90;;;;;;5074284;28;20290;-53
2021/07/23 06:11:30;;;;;;;20.98;16.83;;;19.40;99.90;;;;;;5073966;28;20260;-54
2021/07/23 06:13:58;;;;;;;20.30;17.40;;;19.50;99.90;;;;;;5074000;28;20207;-49
2021/07/23 06:16:28;;;;;;;18.10;16.10;;;19.60;99.90;;;;;;5074330;28;20219;-53
2021/07/23 06:18:56;;;;;;;18.92;15.73;;;19.70;99.90;;;;;;5073819;28;20243;-53
2021/07/23 06:21:24;;;;;;;18.77;16.88;;;19.70;99.90;;;;;;5074404;28;20208;-50
2021/07/23 06:23:52;;;;;;;17.02;15.23;;;19.80;99.90;;;;;;5073966;28;20241;-52
2021/07/23 06:26:20;;;;;;;22.02;16.50;;;19.80;99.90;;;;;;5073323;28;20211;-51
2021/07/23 06:28:48;;;;;;;17.70;15.95;;;19.80;99.90;;;;;;5073225;28;20746;-51
2021/07/23 06:31:15;;;;;;;19.08;17.25;;;19.80;99.90;;;;;;5073514;28;20301;-50
2021/07/23 06:33:45;;;;;;;18.42;16.60;;;19.80;99.90;;;;;;5073449;28;20251;-52
2021/07/23 06:36:13;;;;;;;17.73;15.75;;;19.80;99.90;;;;;;5073528;28;20650;-50
2021/07/23 06:38:41;;;;;;;19.35;17.35;;;19.90;99.90;;;;;;5073351;28;20318;-50
2021/07/23 06:41:08;;;;;;;19.40;16.52;;;19.90;99.90;;;;;;5073231;28;20303;-50
2021/07/23 06:43:36;;;;;;;19.08;17.08;;;20.00;99.90;;;;;;5073535;28;20294;-47
2021/07/23 06:46:04;;;;;;;18.63;16.75;;;20.00;99.90;;;;;;5073279;28;20655;-54
2021/07/23 06:48:33;;;;;;;20.17;17.33;;;20.10;99.90;;;;;;5073109;28;20219;-53
2021/07/23 06:51:03;;;;;;;19.02;17.25;;;20.30;99.90;;;;;;5072986;28;20216;-51
2021/07/23 06:53:31;;;;;;;19.90;17.75;;;20.40;99.90;;;;;;5073072;28;20306;-54
2021/07/23 06:55:59;;;;;;;20.00;18.02;;;20.40;99.90;;;;;;5072933;28;20214;-49
2021/07/23 06:58:27;;;;;;;19.83;16.50;;;20.50;99.90;;;;;;5072863;28;20277;-49
2021/07/23 07:00:55;;;;;;;22.33;17.10;;;20.60;99.90;;;;;;5072988;28;20211;-52
2021/07/23 07:03:23;;;;;;;22.90;20.50;;;20.70;99.90;;;;;;5072909;28;20207;-51
2021/07/23 07:05:51;;;;;;;20.83;18.60;;;20.80;99.90;;;;;;5072700;28;20298;-52
2021/07/23 07:08:20;;;;;;;21.90;19.55;;;20.90;99.90;;;;;;5072943;28;20195;-49
2021/07/23 07:10:48;;;;;;;22.88;19.45;;;21.10;99.90;;;;;;5072836;28;20253;-52
2021/07/23 07:13:16;;;;;;;20.88;18.25;;;21.10;99.90;;;;;;5072453;28;20242;-52
2021/07/23 07:15:44;;;;;;;20.50;17.65;;;21.20;99.90;;;;;;5072677;28;20316;-50
2021/07/23 07:18:12;;;;;;;20.70;18.60;;;21.20;99.90;;;;;;5072410;28;20249;-49
2021/07/23 07:20:40;;;;;;;18.98;17.13;;;21.40;99.90;;;;;;5072379;28;20207;-49
2021/07/23 07:23:07;;;;;;;20.77;16.92;;;21.50;99.90;;;;;;5072049;28;20297;-50
2021/07/23 07:25:38;;;;;;;23.77;21.30;;;21.70;99.90;;;;;;5072336;28;20306;-52
2021/07/23 07:28:06;;;;;;;21.50;17.88;;;21.70;99.90;;;;;;5072468;28;20691;-48
2021/07/23 07:30:54;;;;;;;19.73;16.45;;;21.70;99.90;;;;;;5072421;28;20650;-55
2021/07/23 07:33:22;;;;;;;20.35;18.13;;;21.70;99.90;;;;;;5072607;28;20227;-50
2021/07/23 07:35:50;;;;;;;21.92;19.70;;;21.80;99.90;;;;;;5072216;28;20306;-48
2021/07/23 07:38:19;;;;;;;22.80;20.20;;;21.90;99.90;;;;;;5072248;28;20230;-55
2021/07/23 07:40:48;;;;;;;23.25;17.13;;;21.90;99.90;;;;;;5072299;28;20639;-50
2021/07/23 07:43:16;;;;;;;21.98;19.73;;;22.10;99.90;;;;;;5072309;28;20231;-52
2021/07/23 07:45:44;;;;;;;22.85;20.60;;;22.20;99.90;;;;;;5072194;28;20211;-52
2021/07/23 07:48:12;;;;;;;24.27;21.75;;;22.20;99.90;;;;;;5072239;28;20323;-52
2021/07/23 07:50:41;;;;;;;25.55;19.95;;;22.20;99.90;;;;;;5072029;28;20292;-47
2021/07/23 07:53:11;;;;;;;23.30;21.15;;;22.30;99.90;;;;;;5072021;28;20722;-51
2021/07/23 07:55:39;;;;;;;20.50;18.27;;;22.50;99.90;;;;;;5072052;28;20211;-47
2021/07/23 07:58:09;;;;;;;25.15;18.70;;;22.60;99.90;;;;;;5072320;28;20229;-48
2021/07/23 08:00:36;;;;;;;19.70;17.75;;;22.70;99.90;;;;;;5072251;28;20238;-48
2021/07/23 08:03:04;;;;;;;22.25;17.00;;;22.80;99.90;;;;;;5072264;28;20254;-50
2021/07/23 08:05:33;;;;;;;20.02;17.73;;;22.90;99.90;;;;;;5072102;28;20207;-48
2021/07/23 08:08:03;;;;;;;21.80;18.73;;;23.10;99.90;;;;;;5072137;28;20206;-49
2021/07/23 08:10:36;;;;;;;22.52;18.08;;;23.30;99.90;;;;;;5071793;28;20238;-51
2021/07/23 08:13:04;;;;;;;21.02;17.10;;;23.50;99.90;;;;;;5072007;28;20213;-53
2021/07/23 08:15:36;;;;;;;24.35;18.80;;;23.60;99.90;;;;;;5071965;28;20239;-50
2021/07/23 08:18:05;;;;;;;19.42;16.73;;;23.80;99.90;;;;;;5071443;28;20243;-49
2021/07/23 08:20:33;;;;;;;18.58;15.30;;;23.90;99.90;;;;;;5071928;28;20230;-53
2021/07/23 08:23:01;;;;;;;18.20;16.38;;;24.00;99.90;;;;;;5071560;28;20291;-50
2021/07/23 08:25:29;;;;;;;20.83;18.60;;;24.10;99.90;;;;;;5071681;28;20370;-48
2021/07/23 08:27:57;;;;;;;19.65;17.77;;;24.20;99.90;;;;;;5071847;28;20299;-50
2021/07/23 08:30:24;;;;;;;18.88;17.00;;;24.20;99.90;;;;;;5071839;28;20290;-50
2021/07/23 08:32:54;;;;;;;19.13;17.13;;;24.20;99.90;;;;;;5071792;28;20302;-46
2021/07/23 08:35:22;;;;;;;20.20;16.00;;;24.30;99.90;;;;;;5073991;28;20257;-51
2021/07/23 08:37:49;;;;;;;19.10;16.90;;;24.40;99.90;;;;;;5075916;28;20584;-51
2021/07/23 08:40:17;;;;;;;18.20;16.45;;;24.50;99.80;;;;;;5075663;28;20234;-51
2021/07/23 08:42:47;;;;;;;16.77;14.75;;;24.40;99.70;;;;;;5075675;28;20586;-48
2021/07/23 08:45:15;;;;;;;19.05;15.65;;;24.50;99.60;;;;;;5075552;28;20306;-51
2021/07/23 08:47:43;;;;;;;19.75;15.25;;;24.60;99.40;;;;;;5075802;28;20214;-52
2021/07/23 08:50:12;;;;;;;15.77;14.23;;;24.60;99.10;;;;;;5075467;28;20203;-49
2021/07/23 08:52:42;;;;;;;17.40;14.90;;;24.70;98.90;;;;;;5075670;28;20211;-49
2021/07/23 08:55:11;;;;;;;17.77;16.02;;;24.80;98.60;;;;;;5075384;28;20687;-52
2021/07/23 08:57:40;;;;;;;16.38;14.73;;;24.90;98.20;;;;;;5075336;28;20243;-51
2021/07/23 09:00:10;;;;;;;18.40;16.50;;;25.00;97.90;;;;;;5075198;28;20318;-50
2021/07/23 09:02:51;;;;;;;16.90;15.18;;;25.00;97.60;;;;;;5075122;28;20214;-48
2021/07/23 09:05:22;;;;;;;18.08;16.13;;;25.00;97.70;;;;;;5075549;28;20214;-53
2021/07/23 09:07:50;;;;;;;17.90;16.00;;;24.90;97.90;;;;;;5075334;28;20207;-51
2021/07/23 09:10:23;;;;;;;16.98;15.38;;;24.90;97.90;;;;;;5075267;28;20203;-50
2021/07/23 09:12:53;;;;;;;17.13;15.50;;;25.00;97.80;;;;;;5075114;28;20219;-51
2021/07/23 09:15:23;;;;;;;17.45;15.57;;;25.00;97.70;;;;;;5075032;28;20309;-52
2021/07/23 09:17:52;;;;;;;16.70;15.10;;;25.10;97.60;;;;;;5075145;28;20326;-46
2021/07/23 09:20:27;;;;;;;16.83;15.05;;;25.10;97.50;;;;;;5074894;28;20586;-48
2021/07/23 09:22:57;;;;;;;17.10;15.50;;;25.30;97.40;;;;;;5074958;28;20398;-47
2021/07/23 09:25:42;;;;;;;16.52;14.73;;;25.40;97.20;;;;;;5074858;28;20211;-47
2021/07/23 09:28:24;;;;;;;16.35;14.10;;;25.50;96.80;;;;;;5075111;28;20222;-48
2021/07/23 09:30:53;;;;;;;17.08;15.38;;;25.70;96.60;;;;;;5074872;28;20218;-52
2021/07/23 09:33:27;;;;;;;17.38;15.15;;;25.80;96.50;;;;;;5074517;28;20641;-51
2021/07/23 09:35:57;;;;;;;15.80;14.25;;;25.80;96.30;;;;;;5074307;28;20208;-50
2021/07/23 09:38:32;;;;;;;16.48;14.35;;;25.80;96.30;;;;;;5074663;28;20298;-48
2021/07/23 09:41:01;;;;;;;17.05;15.35;;;26.00;96.20;;;;;;5074488;28;20241;-52
2021/07/23 09:43:33;;;;;;;16.42;14.80;;;26.00;95.80;;;;;;5074328;28;20570;-52
2021/07/23 09:46:26;;;;;;;15.07;13.57;;;26.10;95.50;;;;;;5074050;28;20218;-49
2021/07/23 09:48:55;;;;;;;14.45;13.15;;;26.00;95.20;;;;;;5074652;28;20204;-52
2021/07/23 09:51:26;;;;;;;14.35;12.85;;;26.10;95.20;;;;;;5074577;28;20243;-49
2021/07/23 09:53:55;;;;;;;13.85;12.60;;;26.20;94.80;;;;;;5074700;28;20207;-48
2021/07/23 09:56:25;;;;;;;15.48;13.88;;;26.40;94.40;;;;;;5074798;28;20272;-51
2021/07/23 09:58:56;;;;;;;15.27;13.60;;;26.50;94.00;;;;;;5074516;28;20308;-51
2021/07/23 10:01:29;;;;;;;15.40;13.50;;;26.50;93.70;;;;;;5074637;28;20211;-49
2021/07/23 10:04:01;;;;;;;14.73;12.75;;;26.60;93.40;;;;;;5074478;28;20556;-55
2021/07/23 10:06:35;;;;;;;13.13;11.85;;;26.60;93.30;;;;;;5074116;28;20563;-49
2021/07/23 10:09:09;;;;;;;14.75;12.25;;;26.70;93.00;;;;;;5073785;28;20302;-49
2021/07/23 10:11:40;;;;;;;15.13;13.13;;;26.80;92.90;;;;;;5074191;28;20293;-52
2021/07/23 10:14:11;;;;;;;14.73;13.23;;;26.80;92.80;;;;;;5074210;28;20264;-53
2021/07/23 10:16:40;;;;;;;15.90;12.77;;;26.90;92.80;;;;;;5074222;28;20235;-49
2021/07/23 10:19:09;;;;;;;19.25;13.88;;;26.80;92.70;;;;;;5073918;28;20334;-51
2021/07/23 10:21:38;;;;;;;23.00;14.43;;;26.70;92.90;;;;;;5073947;28;20313;-52
2021/07/23 10:24:07;;;;;;;14.23;12.77;;;26.60;92.80;;;;;;5073941;28;20283;-50
2021/07/23 10:26:35;;;;;;;15.35;13.93;;;26.80;92.70;;;;;;5073988;28;20250;-50
2021/07/23 10:29:05;;;;;;;14.60;13.13;;;26.80;92.50;;;;;;5073775;28;20286;-50
2021/07/23 10:31:46;;;;;;;13.90;12.60;;;26.70;92.50;;;;;;5073850;28;20214;-50
2021/07/23 10:34:33;;;;;;;16.10;13.65;;;26.80;92.20;;;;;;5073588;28;20211;-50
2021/07/23 10:37:03;;;;;;;13.77;12.52;;;26.90;91.90;;;;;;5073551;28;20204;-54
2021/07/23 10:39:31;;;;;;;16.05;12.85;;;26.80;91.90;;;;;;5073617;28;20249;-48
2021/07/23 10:42:35;;;;;;;13.88;12.48;;;26.80;91.70;;;;;;5073406;28;20247;-50
2021/07/23 10:45:05;;;;;;;14.40;12.23;;;27.10;91.10;;;;;;5073295;28;20222;-51
2021/07/23 10:47:40;;;;;;;15.35;12.13;;;27.10;91.00;;;;;;5073155;28;20249;-50
2021/07/23 10:50:11;;;;;;;13.50;12.10;;;27.10;90.80;;;;;;5072748;28;20211;-52
2021/07/23 10:52:41;;;;;;;12.48;11.25;;;27.10;90.50;;;;;;5073355;28;20301;-48
2021/07/23 10:55:21;;;;;;;13.95;12.50;;;27.20;90.40;;;;;;5072876;28;20222;-49
2021/07/23 10:58:26;;;;;;;13.57;12.20;;;27.30;90.20;;;;;;5072693;28;20665;-52
2021/07/23 11:00:58;;;;;;;13.77;12.38;;;27.40;90.00;;;;;;5073243;28;20579;-50
2021/07/23 11:03:47;;;;;;;13.00;11.68;;;27.50;89.60;;;;;;5073143;28;20211;-54
2021/07/23 11:06:17;;;;;;;13.45;12.25;;;27.70;88.90;;;;;;5073286;28;20207;-52
2021/07/23 11:08:48;;;;;;;12.75;11.63;;;28.00;87.90;;;;;;5073074;28;20294;-47
2021/07/23 11:11:17;;;;;;;13.13;11.90;;;28.20;86.70;;;;;;5073274;28;20210;-52
2021/07/23 11:13:45;;;;;;;13.50;12.20;;;28.50;85.80;;;;;;5072735;28;20203;-50
2021/07/23 11:16:14;;;;;;;12.77;11.48;;;28.60;84.80;;;;;;5072616;28;20229;-51
2021/07/23 11:18:53;;;;;;;12.77;11.30;;;28.70;84.10;;;;;;5072707;28;20662;-50
2021/07/23 11:21:23;;;;;;;12.27;11.07;;;28.70;83.20;;;;;;5072441;28;20227;-53
2021/07/23 11:23:52;;;;;;;12.40;11.30;;;28.70;83.30;;;;;;5072681;28;20211;-49
2021/07/23 11:26:31;;;;;;;25.58;14.02;;;28.70;83.00;;;;;;5072408;28;20207;-51
2021/07/23 11:28:59;;;;;;;13.75;11.70;;;28.70;82.70;;;;;;5072711;28;20290;-51
2021/07/23 11:31:31;;;;;;;13.13;11.52;;;28.80;82.00;;;;;;5072615;28;20635;-49
2021/07/23 11:34:01;;;;;;;12.77;11.27;;;28.90;81.20;;;;;;5072277;28;20210;-46
2021/07/23 11:36:36;;;;;;;11.32;10.43;;;29.10;80.10;;;;;;5072342;28;20207;-50
2021/07/23 11:39:07;;;;;;;12.25;11.07;;;29.20;78.80;;;;;;5072355;28;20313;-45
2021/07/23 11:41:36;;;;;;;11.30;10.02;;;29.20;77.20;;;;;;5072265;28;20314;-47
2021/07/23 11:44:08;;;;;;;11.80;10.70;;;29.10;76.20;;;;;;5071966;28;20207;-48
2021/07/23 11:46:37;;;;;;;11.48;10.15;;;29.00;75.70;;;;;;5072314;28;20203;-50
2021/07/23 11:49:06;;;;;;;13.02;11.35;;;29.00;75.10;;;;;;5072283;28;20218;-50
2021/07/23 11:51:39;;;;;;;12.07;10.63;;;29.00;75.00;;;;;;5072066;28;20394;-49
2021/07/23 11:54:09;;;;;;;11.40;10.30;;;28.90;74.70;;;;;;5072217;28;20295;-48
2021/07/23 11:56:37;;;;;;;13.18;11.15;;;28.70;75.20;;;;;;5072005;28;20207;-50
2021/07/23 11:59:05;;;;;;;10.85;9.85;;;28.50;74.50;;;;;;5072011;28;20568;-48
2021/07/23 12:01:37;;;;;;;13.50;10.27;;;28.20;74.90;;;;;;5071975;28;20234;-48
2021/07/23 12:04:06;;;;;;;12.07;10.70;;;27.90;74.90;;;;;;5072155;28;20429;-49
2021/07/23 12:06:36;;;;;;;13.15;11.90;;;27.70;75.00;;;;;;5072218;28;20290;-52
2021/07/23 12:09:07;;;;;;;14.75;13.35;;;27.60;75.40;;;;;;5071839;28;20207;-48
2021/07/23 12:11:36;;;;;;;12.60;11.40;;;27.60;75.60;;;;;;5071985;28;20207;-46
2021/07/23 12:14:09;;;;;;;14.63;12.05;;;27.80;74.90;;;;;;5071500;28;20269;-51
2021/07/23 12:16:41;;;;;;;11.80;10.48;;;27.90;74.40;;;;;;5071931;28;20190;-49
2021/07/23 12:19:10;;;;;;;11.48;10.27;;;28.00;74.10;;;;;;5071784;28;20250;-48
2021/07/23 12:21:40;;;;;;;11.82;10.70;;;28.20;73.30;;;;;;5071752;28;20670;-52
2021/07/23 12:24:10;;;;;;;12.18;10.43;;;28.40;72.20;;;;;;5071934;28;20608;-49
2021/07/23 12:26:40;;;;;;;12.10;11.00;;;28.60;71.60;;;;;;5071783;28;20290;-51
2021/07/23 12:29:10;;;;;;;11.27;10.15;;;28.70;70.90;;;;;;5071605;28;20211;-50
2021/07/23 12:31:38;;;;;;;12.07;10.88;;;28.70;70.40;;;;;;5071899;28;20211;-48
2021/07/23 12:34:08;;;;;;;15.82;10.68;;;28.80;70.00;;;;;;5071737;28;20290;-49
2021/07/23 12:36:41;;;;;;;12.73;11.50;;;28.70;69.80;;;;;;5071844;28;20298;-48
2021/07/23 12:39:09;;;;;;;10.77;9.77;;;28.80;69.50;;;;;;5071561;28;20279;-50
2021/07/23 12:41:40;;;;;;;12.88;11.63;;;28.90;69.00;;;;;;5071627;28;20235;-49